Time;durP1;ratioP1;P1;durP2;ratioP2;P2;SDS_P1;SDS_P2;PMS_P1;PMS_P2;Temp;Humidity;BMP_temperature;BMP_pressure;BME280_temperature;BME280_humidity;BME280_pressure;Samples;Min_cycle;Max_cycle;Signal;HPM_P1;HPM_P2
2023/01/02 00:00:31;;;;;;;16.55;7.70;;;11.80;99.90;;;;;;5052090;28;20078;-73
2023/01/02 00:02:56;;;;;;;21.30;7.50;;;11.80;99.90;;;;;;5051819;28;20466;-73
2023/01/02 00:05:22;;;;;;;23.05;7.78;;;11.90;99.90;;;;;;5052012;28;20053;-73
2023/01/02 00:07:48;;;;;;;15.93;7.32;;;11.90;99.90;;;;;;5052060;28;20501;-73
2023/01/02 00:10:13;;;;;;;18.02;8.25;;;11.90;99.90;;;;;;5051200;28;20032;-73
2023/01/02 00:12:39;;;;;;;15.93;7.55;;;11.90;99.90;;;;;;5052078;28;20513;-74
2023/01/02 00:15:05;;;;;;;23.02;8.13;;;11.90;99.90;;;;;;5052004;28;20771;-73
2023/01/02 00:17:31;;;;;;;18.60;8.13;;;11.90;99.90;;;;;;5051980;28;20017;-73
2023/01/02 00:19:56;;;;;;;19.63;8.13;;;11.90;99.90;;;;;;5033804;28;20025;-73
2023/01/02 00:22:22;;;;;;;22.73;8.25;;;11.90;99.90;;;;;;5051008;28;20044;-73
2023/01/02 00:24:48;;;;;;;22.02;8.05;;;11.90;99.90;;;;;;5051506;28;20017;-73
2023/01/02 00:27:14;;;;;;;22.13;8.10;;;11.90;99.90;;;;;;5051562;28;20070;-73
2023/01/02 00:29:40;;;;;;;18.52;8.15;;;11.90;99.90;;;;;;5051425;28;20029;-73
2023/01/02 00:32:05;;;;;;;20.67;8.50;;;11.90;99.90;;;;;;5033647;28;20036;-71
2023/01/02 00:34:31;;;;;;;20.75;8.30;;;11.90;99.90;;;;;;5064662;28;20339;-71
2023/01/02 00:36:57;;;;;;;21.73;8.43;;;11.90;99.90;;;;;;5051204;28;20390;-71
2023/01/02 00:39:22;;;;;;;20.55;8.30;;;11.90;99.90;;;;;;5037098;28;20044;-71
2023/01/02 00:41:48;;;;;;;20.08;8.43;;;11.90;99.90;;;;;;5051296;28;20426;-71
2023/01/02 00:44:14;;;;;;;23.95;8.77;;;11.90;99.90;;;;;;5051252;28;20028;-71
2023/01/02 00:46:39;;;;;;;19.88;8.68;;;11.90;99.90;;;;;;5051409;28;20021;-71
2023/01/02 00:49:05;;;;;;;21.75;9.07;;;11.90;99.90;;;;;;5053641;28;20029;-71
2023/01/02 00:51:30;;;;;;;22.15;8.88;;;11.90;99.90;;;;;;5060180;28;20085;-71
2023/01/02 00:53:56;;;;;;;19.02;8.18;;;11.90;99.90;;;;;;5052903;28;20056;-71
2023/01/02 00:56:22;;;;;;;19.08;9.00;;;11.90;99.90;;;;;;5048091;28;20052;-73
2023/01/02 00:58:47;;;;;;;21.25;8.73;;;11.90;99.90;;;;;;5040132;28;20021;-73
2023/01/02 01:01:13;;;;;;;21.48;8.73;;;11.90;99.90;;;;;;5051200;28;20028;-73
2023/01/02 01:03:42;;;;;;;21.10;8.60;;;11.90;99.90;;;;;;5070969;28;20020;-73
2023/01/02 01:06:08;;;;;;;21.15;8.50;;;11.90;99.90;;;;;;5057083;28;20056;-73
2023/01/02 01:08:37;;;;;;;22.83;8.63;;;11.90;99.90;;;;;;5050978;28;20025;-73
2023/01/02 01:11:12;;;;;;;19.88;9.23;;;11.90;99.90;;;;;;5050912;28;20033;-73
2023/01/02 01:13:38;;;;;;;22.90;8.82;;;11.90;99.90;;;;;;5036224;28;20030;-73
2023/01/02 01:16:09;;;;;;;21.85;8.93;;;11.90;99.90;;;;;;5050411;28;20048;-73
2023/01/02 01:18:35;;;;;;;17.38;8.13;;;11.90;99.90;;;;;;5029550;28;20029;-73
2023/01/02 01:21:15;;;;;;;18.52;7.97;;;11.80;99.90;;;;;;5036852;28;20029;-73
2023/01/02 01:23:40;;;;;;;21.00;8.02;;;11.90;99.90;;;;;;5037610;28;20043;-73
2023/01/02 01:26:09;;;;;;;20.27;8.77;;;11.80;99.90;;;;;;5063887;28;20032;-73
2023/01/02 01:28:35;;;;;;;20.52;8.48;;;11.80;99.90;;;;;;5049591;28;20028;-73
2023/01/02 01:31:06;;;;;;;22.13;9.13;;;11.80;99.90;;;;;;5054356;28;20032;-73
2023/01/02 01:33:31;;;;;;;18.00;8.20;;;11.80;99.90;;;;;;5059948;28;20029;-73
2023/01/02 01:36:18;;;;;;;17.90;8.27;;;11.80;99.90;;;;;;5049976;28;20017;-73
2023/01/02 01:38:44;;;;;;;19.83;9.07;;;11.80;99.90;;;;;;5032310;28;20074;-73
2023/01/02 01:41:12;;;;;;;20.40;8.80;;;11.80;99.90;;;;;;5050369;28;20433;-73
2023/01/02 01:43:42;;;;;;;16.35;8.95;;;11.80;99.90;;;;;;5050063;28;20025;-73
2023/01/02 01:46:43;;;;;;;16.95;8.52;;;11.80;99.90;;;;;;5050263;28;20429;-73
2023/01/02 01:49:17;;;;;;;19.08;8.20;;;11.80;99.90;;;;;;5045720;28;20170;-73
2023/01/02 01:51:50;;;;;;;21.20;8.65;;;11.80;99.90;;;;;;5042792;28;20036;-73
2023/01/02 01:54:22;;;;;;;18.10;9.05;;;11.80;99.90;;;;;;5070212;28;20028;-73
2023/01/02 01:56:55;;;;;;;20.10;8.80;;;11.80;99.90;;;;;;5069862;28;20027;-72
2023/01/02 01:59:21;;;;;;;20.33;9.55;;;11.80;99.90;;;;;;5056809;28;20118;-73
2023/01/02 02:01:48;;;;;;;21.27;9.27;;;11.80;99.90;;;;;;5049790;28;20060;-73
2023/01/02 02:04:15;;;;;;;23.75;10.00;;;11.80;99.90;;;;;;5060859;28;20021;-73
2023/01/02 02:06:41;;;;;;;20.95;9.75;;;11.80;99.90;;;;;;5054765;28;20040;-73
2023/01/02 02:09:14;;;;;;;18.95;9.10;;;11.80;99.90;;;;;;5061024;28;20496;-73
2023/01/02 02:11:41;;;;;;;21.88;10.05;;;11.80;99.90;;;;;;5031969;28;20025;-73
2023/01/02 02:14:07;;;;;;;20.60;10.25;;;11.80;99.90;;;;;;5049813;28;20036;-73
2023/01/02 02:17:13;;;;;;;25.60;10.23;;;11.80;99.90;;;;;;5050100;28;20479;-73
2023/01/02 02:20:35;;;;;;;24.05;10.32;;;11.90;99.90;;;;;;5054080;28;20024;-73
2023/01/02 02:23:12;;;;;;;26.40;10.63;;;11.80;99.90;;;;;;5011555;28;20403;-73
2023/01/02 02:25:46;;;;;;;25.73;11.52;;;11.80;99.90;;;;;;5011625;28;20056;-73
2023/01/02 02:28:26;;;;;;;22.33;11.90;;;11.80;99.90;;;;;;4997447;28;20046;-73
2023/01/02 02:31:03;;;;;;;24.60;11.88;;;11.80;99.90;;;;;;5004053;28;20080;-73
2023/01/02 02:33:54;;;;;;;28.33;12.20;;;11.80;99.90;;;;;;5011199;28;20149;-73
2023/01/02 02:36:45;;;;;;;28.02;12.13;;;11.80;99.90;;;;;;5011698;28;20037;-73
2023/01/02 02:39:33;;;;;;;26.30;13.10;;;11.80;99.90;;;;;;5010587;28;20053;-73
2023/01/02 02:42:23;;;;;;;27.13;12.63;;;11.80;99.90;;;;;;5008055;28;20033;-73
2023/01/02 02:45:06;;;;;;;30.25;12.98;;;11.80;99.90;;;;;;5011187;28;20275;-73
2023/01/02 02:47:34;;;;;;;27.80;12.43;;;11.80;99.90;;;;;;5010838;28;20053;-73
2023/01/02 02:50:36;;;;;;;27.83;13.07;;;11.80;99.90;;;;;;5010507;28;20109;-73
2023/01/02 02:53:16;;;;;;;30.67;12.82;;;11.80;99.90;;;;;;5022529;28;20045;-73
2023/01/02 02:55:49;;;;;;;23.98;11.68;;;11.80;99.90;;;;;;5053737;28;20056;-73
2023/01/02 02:58:17;;;;;;;28.40;11.50;;;11.80;99.90;;;;;;5058678;28;20036;-73
2023/01/02 03:00:43;;;;;;;28.13;12.10;;;11.90;99.90;;;;;;5062603;28;20028;-73
2023/01/02 03:03:21;;;;;;;30.33;13.43;;;11.90;99.90;;;;;;5051109;28;20075;-73
2023/01/02 03:06:21;;;;;;;24.02;12.60;;;11.90;99.90;;;;;;5043704;28;20080;-73
2023/01/02 03:08:49;;;;;;;30.02;12.77;;;11.90;99.90;;;;;;5046186;28;20060;-73
2023/01/02 03:11:15;;;;;;;21.23;12.85;;;11.90;99.90;;;;;;5046274;28;20043;-73
2023/01/02 03:14:05;;;;;;;25.90;11.15;;;11.90;99.90;;;;;;5048865;28;20393;-73
2023/01/02 03:16:39;;;;;;;29.92;11.85;;;11.90;99.90;;;;;;5045767;28;20025;-73
2023/01/02 03:19:07;;;;;;;24.80;10.68;;;11.90;99.90;;;;;;5051685;28;20032;-73
2023/01/02 03:21:38;;;;;;;28.90;10.88;;;11.90;99.90;;;;;;5058613;28;20017;-73
2023/01/02 03:24:10;;;;;;;23.10;9.43;;;12.00;99.90;;;;;;5052785;28;20532;-73
2023/01/02 03:26:40;;;;;;;22.55;9.40;;;12.00;99.90;;;;;;5052799;28;20025;-73
2023/01/02 03:29:17;;;;;;;25.40;9.60;;;12.00;99.90;;;;;;5052025;28;20032;-73
2023/01/02 03:31:47;;;;;;;21.65;8.95;;;12.00;99.90;;;;;;5034761;28;20040;-73
2023/01/02 03:34:17;;;;;;;26.10;9.73;;;12.00;99.90;;;;;;5052150;28;20021;-73
2023/01/02 03:36:49;;;;;;;28.05;10.40;;;12.00;99.90;;;;;;5034242;28;20024;-72
2023/01/02 03:39:17;;;;;;;20.33;9.63;;;12.00;99.90;;;;;;5038248;28;20032;-73
2023/01/02 03:41:54;;;;;;;21.52;10.38;;;12.00;99.90;;;;;;5061474;28;20110;-73
2023/01/02 03:44:23;;;;;;;25.65;10.82;;;12.00;99.90;;;;;;5052139;28;20375;-73
2023/01/02 03:46:57;;;;;;;20.00;9.98;;;12.00;99.90;;;;;;5062685;28;20062;-73
2023/01/02 03:49:33;;;;;;;30.90;10.30;;;12.00;99.90;;;;;;5052410;28;20051;-72
2023/01/02 03:51:59;;;;;;;19.67;9.50;;;12.00;99.90;;;;;;5052193;28;20120;-73
2023/01/02 03:54:26;;;;;;;22.67;9.73;;;12.00;99.90;;;;;;5048855;28;20096;-73
2023/01/02 03:57:25;;;;;;;21.73;9.68;;;12.00;99.90;;;;;;5041257;28;20425;-73
2023/01/02 04:00:00;;;;;;;20.75;9.65;;;12.00;99.90;;;;;;5032126;28;20549;-73
2023/01/02 04:02:43;;;;;;;30.27;10.70;;;12.00;99.90;;;;;;5062187;28;20020;-74
2023/01/02 04:05:30;;;;;;;17.67;10.18;;;12.00;99.90;;;;;;5052929;28;20349;-74
2023/01/02 04:08:06;;;;;;;24.70;10.57;;;12.00;99.90;;;;;;5052071;28;20363;-73
2023/01/02 04:10:36;;;;;;;23.63;10.50;;;12.00;99.90;;;;;;5051475;28;20288;-73
2023/01/02 04:13:15;;;;;;;25.73;10.75;;;12.00;99.90;;;;;;5052060;28;20462;-73
2023/01/02 04:15:42;;;;;;;25.67;11.00;;;12.00;99.90;;;;;;5051373;28;20051;-73
2023/01/02 04:18:11;;;;;;;19.83;10.73;;;12.00;99.90;;;;;;5033470;28;20017;-73
2023/01/02 04:20:42;;;;;;;21.73;10.00;;;12.00;99.90;;;;;;5051472;28;20017;-73
2023/01/02 04:23:14;;;;;;;18.25;10.68;;;12.00;99.90;;;;;;5051746;28;20036;-73
2023/01/02 04:25:58;;;;;;;22.58;13.73;;;12.00;99.90;;;;;;5051799;28;20087;-73
2023/01/02 04:28:27;;;;;;;13.48;8.80;;;12.00;99.90;;;;;;5051448;28;20385;-73
2023/01/02 04:31:15;;;;;;;8.15;6.15;;;11.90;99.90;;;;;;5059696;28;20028;-73
2023/01/02 04:33:57;;;;;;;7.05;4.38;;;11.70;99.90;;;;;;5054250;28;20098;-73
2023/01/02 04:36:23;;;;;;;4.82;3.60;;;11.50;99.90;;;;;;5050743;28;20372;-73
2023/01/02 04:38:49;;;;;;;4.15;3.30;;;11.40;99.90;;;;;;5047202;28;20104;-73
2023/01/02 04:41:25;;;;;;;4.03;3.53;;;11.20;99.90;;;;;;5050699;28;20134;-73
2023/01/02 04:43:55;;;;;;;4.88;3.53;;;11.10;99.90;;;;;;5067685;28;20421;-73
2023/01/02 04:46:22;;;;;;;4.57;3.25;;;11.00;99.90;;;;;;5051389;28;20522;-73
2023/01/02 04:48:47;;;;;;;4.88;3.15;;;10.90;99.90;;;;;;5033293;28;20014;-73
2023/01/02 04:51:13;;;;;;;4.15;2.67;;;10.80;99.90;;;;;;5050804;28;20044;-73
2023/01/02 04:53:39;;;;;;;2.78;2.33;;;10.70;99.90;;;;;;5051619;28;20537;-73
2023/01/02 04:56:05;;;;;;;3.80;2.00;;;10.70;99.90;;;;;;5043832;28;20494;-73
2023/01/02 04:58:30;;;;;;;3.17;1.75;;;10.60;99.90;;;;;;5043421;28;20063;-73
2023/01/02 05:00:56;;;;;;;4.25;2.00;;;10.60;99.90;;;;;;5051613;28;20060;-73
2023/01/02 05:03:22;;;;;;;3.00;2.13;;;10.50;99.90;;;;;;5030018;28;20025;-73
2023/01/02 05:05:47;;;;;;;3.33;2.17;;;10.50;99.90;;;;;;5049108;28;20102;-73
2023/01/02 05:08:13;;;;;;;2.72;2.10;;;10.40;99.90;;;;;;5059292;28;20025;-73
2023/01/02 05:10:39;;;;;;;3.65;2.40;;;10.40;99.90;;;;;;5053145;28;20068;-73
2023/01/02 05:13:04;;;;;;;4.60;2.42;;;10.40;99.90;;;;;;5050705;28;20377;-73
2023/01/02 05:15:30;;;;;;;4.38;2.80;;;10.30;99.90;;;;;;5050405;28;20028;-73
2023/01/02 05:17:56;;;;;;;4.85;3.40;;;10.30;99.90;;;;;;5050353;28;20040;-73
2023/01/02 05:20:22;;;;;;;5.32;3.33;;;10.40;99.90;;;;;;5050848;28;20257;-73
2023/01/02 05:23:48;;;;;;;5.63;3.45;;;10.30;99.90;;;;;;5050422;28;20199;-73
2023/01/02 05:25:43;;;;;;;9.60;4.75;;;10.30;99.90;;;;;;5025655;28;20543;-73
2023/01/02 05:28:08;;;;;;;9.52;5.43;;;10.30;99.90;;;;;;5046728;28;20060;-73
2023/01/02 05:30:37;;;;;;;8.75;5.53;;;10.30;99.90;;;;;;5031886;28;20072;-73
2023/01/02 05:33:02;;;;;;;11.95;5.90;;;10.20;99.90;;;;;;5050648;28;20056;-73
2023/01/02 05:35:28;;;;;;;12.70;6.85;;;10.30;99.90;;;;;;5054303;28;20040;-73
2023/01/02 05:37:53;;;;;;;11.75;7.18;;;10.30;99.90;;;;;;5050959;28;20025;-73
2023/01/02 05:40:19;;;;;;;15.75;7.40;;;10.20;99.90;;;;;;5049861;28;20017;-73
2023/01/02 05:42:44;;;;;;;13.23;7.90;;;10.20;99.90;;;;;;5050405;28;20429;-73
2023/01/02 05:45:10;;;;;;;17.05;8.15;;;10.20;99.90;;;;;;5050352;28;20025;-73
2023/01/02 05:47:36;;;;;;;15.15;7.50;;;10.20;99.90;;;;;;5049702;28;20024;-73
2023/01/02 05:50:01;;;;;;;17.50;7.70;;;10.10;99.90;;;;;;5032571;28;20108;-73
2023/01/02 05:52:27;;;;;;;19.63;7.90;;;10.10;99.90;;;;;;5049360;28;20099;-74
2023/01/02 05:54:52;;;;;;;12.55;5.05;;;10.10;99.90;;;;;;5050397;28;20099;-73
2023/01/02 05:57:18;;;;;;;9.73;4.32;;;10.10;99.90;;;;;;5065371;28;20108;-73
2023/01/02 05:59:44;;;;;;;12.00;3.70;;;10.10;99.90;;;;;;5062185;28;20017;-73
2023/01/02 06:02:09;;;;;;;6.20;2.83;;;10.00;99.90;;;;;;5050443;28;20033;-73
2023/01/02 06:04:35;;;;;;;8.00;2.83;;;10.00;99.90;;;;;;5049729;28;20055;-73
2023/01/02 06:07:00;;;;;;;8.45;2.92;;;9.90;99.90;;;;;;5050140;28;20021;-73
2023/01/02 06:09:26;;;;;;;8.82;2.95;;;9.90;99.90;;;;;;5037488;28;20036;-73
2023/01/02 06:11:51;;;;;;;14.15;3.03;;;9.80;99.90;;;;;;5049933;28;20064;-74
2023/01/02 06:14:17;;;;;;;15.25;2.50;;;9.80;99.90;;;;;;5049880;28;20017;-73
2023/01/02 06:16:43;;;;;;;10.90;2.38;;;9.80;99.90;;;;;;5050130;28;20017;-74
2023/01/02 06:19:08;;;;;;;7.43;1.75;;;9.70;99.90;;;;;;5050134;28;20093;-74
2023/01/02 06:21:34;;;;;;;8.27;1.95;;;9.70;99.90;;;;;;5048801;28;20478;-73
2023/01/02 06:23:59;;;;;;;8.73;1.95;;;9.70;99.90;;;;;;5030987;28;20048;-74
2023/01/02 06:26:27;;;;;;;8.80;1.85;;;9.70;99.90;;;;;;5053832;28;20021;-73
2023/01/02 06:28:54;;;;;;;12.75;2.55;;;9.70;99.90;;;;;;5051118;28;20126;-74
2023/01/02 06:31:22;;;;;;;9.23;2.72;;;9.70;99.90;;;;;;5049190;28;20037;-74
2023/01/02 06:33:56;;;;;;;10.73;2.55;;;9.70;99.90;;;;;;5048300;28;20051;-73
2023/01/02 06:36:23;;;;;;;6.97;2.28;;;9.70;99.90;;;;;;5049155;28;20025;-73
2023/01/02 06:38:49;;;;;;;12.88;2.72;;;9.70;99.90;;;;;;5046107;28;20013;-73
2023/01/02 06:41:15;;;;;;;13.68;3.30;;;9.70;99.90;;;;;;5039126;28;20040;-73
2023/01/02 06:43:46;;;;;;;12.55;2.78;;;9.70;99.90;;;;;;5059250;28;20070;-73
2023/01/02 06:46:13;;;;;;;17.08;3.47;;;9.70;99.90;;;;;;5049611;28;20029;-73
2023/01/02 06:48:39;;;;;;;15.35;3.60;;;9.70;99.90;;;;;;5029180;28;20040;-74
2023/01/02 06:51:06;;;;;;;12.27;2.92;;;9.70;99.90;;;;;;5049278;28;20041;-74
2023/01/02 06:53:34;;;;;;;11.75;3.00;;;9.70;99.90;;;;;;5049298;28;20120;-74
2023/01/02 06:55:59;;;;;;;12.30;3.65;;;9.70;99.90;;;;;;5049171;28;20483;-74
2023/01/02 06:58:28;;;;;;;10.98;3.55;;;9.70;99.90;;;;;;5049254;28;20017;-73
2023/01/02 07:00:54;;;;;;;7.88;3.13;;;9.70;99.90;;;;;;5057863;28;20032;-74
2023/01/02 07:03:19;;;;;;;7.35;4.13;;;9.70;99.90;;;;;;5053105;28;20021;-73
2023/01/02 07:05:46;;;;;;;13.18;4.40;;;9.70;99.90;;;;;;5066165;28;20105;-73
2023/01/02 07:08:12;;;;;;;21.35;6.00;;;9.70;99.90;;;;;;5052731;28;20035;-73
2023/01/02 07:10:38;;;;;;;15.85;5.40;;;9.70;99.90;;;;;;5052794;28;20053;-73
2023/01/02 07:13:04;;;;;;;13.50;5.60;;;9.70;99.90;;;;;;5052757;28;20025;-73
2023/01/02 07:15:31;;;;;;;13.82;5.45;;;9.60;99.90;;;;;;5053807;28;20017;-73
2023/01/02 07:17:56;;;;;;;11.57;5.45;;;9.60;99.90;;;;;;5038692;28;20029;-73
2023/01/02 07:20:22;;;;;;;7.32;4.38;;;9.60;99.90;;;;;;5049171;28;20028;-73
2023/01/02 07:22:52;;;;;;;10.73;4.70;;;9.60;99.90;;;;;;5057047;28;20016;-73
2023/01/02 07:25:21;;;;;;;13.57;5.30;;;9.60;99.90;;;;;;5056149;28;20024;-73
2023/01/02 07:27:46;;;;;;;10.68;5.07;;;9.60;99.90;;;;;;5055644;28;20447;-73
2023/01/02 07:30:13;;;;;;;9.98;4.43;;;9.60;99.90;;;;;;5055044;28;20096;-73
2023/01/02 07:32:38;;;;;;;7.22;4.18;;;9.60;99.90;;;;;;5059594;28;20406;-73
2023/01/02 07:35:05;;;;;;;6.90;3.33;;;9.60;99.90;;;;;;5054034;28;20017;-73
2023/01/02 07:37:31;;;;;;;9.80;3.60;;;9.60;99.90;;;;;;5058100;28;20074;-73
2023/01/02 07:39:56;;;;;;;5.72;2.92;;;9.60;99.90;;;;;;5058304;28;20557;-73
2023/01/02 07:42:22;;;;;;;6.03;3.35;;;9.60;99.90;;;;;;5052141;28;20390;-73
2023/01/02 07:44:47;;;;;;;7.40;2.95;;;9.60;99.90;;;;;;5060962;28;20481;-73
2023/01/02 07:47:13;;;;;;;11.52;3.22;;;9.60;99.90;;;;;;5056442;28;20033;-73
2023/01/02 07:49:39;;;;;;;6.10;2.53;;;9.60;99.90;;;;;;5059806;28;20023;-73
2023/01/02 07:52:08;;;;;;;7.53;2.45;;;9.60;99.90;;;;;;5058863;28;20055;-73
2023/01/02 07:54:34;;;;;;;5.57;2.00;;;9.60;99.90;;;;;;5052622;28;20398;-73
2023/01/02 07:56:59;;;;;;;5.22;2.20;;;9.60;99.90;;;;;;5056348;28;20025;-73
2023/01/02 07:59:25;;;;;;;3.63;1.80;;;9.60;99.90;;;;;;5047488;28;20013;-74
2023/01/02 08:01:50;;;;;;;6.00;1.88;;;9.50;99.90;;;;;;5062294;28;20023;-73
2023/01/02 08:04:16;;;;;;;7.90;1.65;;;9.50;99.90;;;;;;5055936;28;20028;-73
2023/01/02 08:06:42;;;;;;;4.32;1.50;;;9.50;99.90;;;;;;5036705;28;20127;-73
2023/01/02 08:09:07;;;;;;;6.43;1.95;;;9.50;99.90;;;;;;5051755;28;20441;-72
2023/01/02 08:11:33;;;;;;;10.02;1.70;;;9.50;99.90;;;;;;5058448;28;20025;-73
2023/01/02 08:13:59;;;;;;;10.70;1.55;;;9.50;99.90;;;;;;5053352;28;20490;-72
2023/01/02 08:16:24;;;;;;;6.75;1.30;;;9.50;99.90;;;;;;5051109;28;20028;-73
2023/01/02 08:18:57;;;;;;;6.97;1.45;;;9.40;99.90;;;;;;5056816;28;20390;-74
2023/01/02 08:21:24;;;;;;;7.97;1.30;;;9.40;99.90;;;;;;5061590;28;20056;-74
2023/01/02 08:23:50;;;;;;;8.15;1.50;;;9.40;99.90;;;;;;5055823;28;20354;-73
2023/01/02 08:26:16;;;;;;;4.53;1.30;;;9.40;99.90;;;;;;5052504;28;20044;-73
2023/01/02 08:28:42;;;;;;;9.55;1.70;;;9.40;99.90;;;;;;5063729;28;20017;-74
2023/01/02 08:31:14;;;;;;;11.05;1.52;;;9.40;99.90;;;;;;5067971;28;20170;-74
2023/01/02 08:33:40;;;;;;;8.20;1.40;;;9.40;99.90;;;;;;5058008;28;20025;-74
2023/01/02 08:36:06;;;;;;;5.32;1.38;;;9.40;99.90;;;;;;5063887;28;20397;-74
2023/01/02 08:38:32;;;;;;;9.95;1.92;;;9.40;99.90;;;;;;5067148;28;20020;-74
2023/01/02 08:40:58;;;;;;;7.85;1.92;;;9.40;99.90;;;;;;5068180;28;20028;-74
2023/01/02 08:43:24;;;;;;;7.22;1.10;;;9.40;99.90;;;;;;5064675;28;20075;-74
2023/01/02 08:45:50;;;;;;;9.75;1.67;;;9.40;99.90;;;;;;5050668;28;20036;-73
2023/01/02 08:48:15;;;;;;;5.47;1.30;;;9.40;99.90;;;;;;5049729;28;20017;-74
2023/01/02 08:50:41;;;;;;;9.30;1.60;;;9.40;99.90;;;;;;5049146;28;20425;-74
2023/01/02 08:53:07;;;;;;;7.10;1.45;;;9.40;99.90;;;;;;5061480;28;20514;-74
2023/01/02 08:55:32;;;;;;;9.50;1.50;;;9.40;99.90;;;;;;5068259;28;20024;-74
2023/01/02 08:57:58;;;;;;;5.60;1.75;;;9.40;99.90;;;;;;5055213;28;20021;-73
2023/01/02 09:00:23;;;;;;;8.10;1.50;;;9.40;99.90;;;;;;5047810;28;20022;-72
2023/01/02 09:02:49;;;;;;;7.20;1.60;;;9.40;99.90;;;;;;5042483;28;20092;-73
2023/01/02 09:05:15;;;;;;;7.82;1.38;;;9.40;99.90;;;;;;5060108;28;20040;-73
2023/01/02 09:07:42;;;;;;;9.23;1.48;;;9.40;99.90;;;;;;5053801;28;20533;-73
2023/01/02 09:10:08;;;;;;;13.02;1.65;;;9.40;99.90;;;;;;5046763;28;20332;-74
2023/01/02 09:12:35;;;;;;;6.80;1.50;;;9.40;99.90;;;;;;5047236;28;20037;-73
2023/01/02 09:15:01;;;;;;;8.38;1.40;;;9.40;99.90;;;;;;5051673;28;20066;-74
2023/01/02 09:17:26;;;;;;;9.32;1.75;;;9.40;99.90;;;;;;5062251;28;20025;-75
2023/01/02 09:19:52;;;;;;;11.27;2.03;;;9.40;99.90;;;;;;5055463;28;20056;-75
2023/01/02 09:22:18;;;;;;;12.20;1.52;;;9.40;99.90;;;;;;5060360;28;20025;-75
2023/01/02 09:24:43;;;;;;;14.38;1.67;;;9.40;99.90;;;;;;5053725;28;20449;-75
2023/01/02 09:27:10;;;;;;;12.23;1.40;;;9.40;99.90;;;;;;5064218;28;20029;-75
2023/01/02 09:29:36;;;;;;;10.93;1.48;;;9.40;99.90;;;;;;5064917;28;20063;-72
2023/01/02 09:32:01;;;;;;;7.05;1.20;;;9.30;99.90;;;;;;5045185;28;20064;-73
2023/01/02 09:34:27;;;;;;;10.88;1.83;;;9.30;99.90;;;;;;5061393;28;20478;-74
2023/01/02 09:36:52;;;;;;;10.35;1.85;;;9.30;99.90;;;;;;5059668;28;20020;-74
2023/01/02 09:39:18;;;;;;;10.32;1.70;;;9.30;99.90;;;;;;5058291;28;20025;-74
2023/01/02 09:41:53;;;;;;;6.10;1.30;;;9.30;99.90;;;;;;5056607;28;20025;-74
2023/01/02 09:44:34;;;;;;;;;;;9.30;99.90;;;;;;5060657;28;20063;-74
2023/01/02 09:47:10;;;;;;;7.45;1.20;;;9.30;99.90;;;;;;5066503;28;19909;-74
2023/01/02 09:49:53;;;;;;;9.43;1.40;;;9.30;99.90;;;;;;5044850;28;20382;-74
2023/01/02 09:52:21;;;;;;;13.27;1.70;;;9.30;99.90;;;;;;5052058;28;20125;-74
2023/01/02 09:54:46;;;;;;;11.40;1.60;;;9.30;99.90;;;;;;5057154;28;20350;-75
2023/01/02 09:57:22;;;;;;;12.68;1.65;;;9.30;99.90;;;;;;5055608;28;20067;-74
2023/01/02 09:59:56;;;;;;;9.35;1.50;;;9.30;99.90;;;;;;5051229;28;20013;-74
2023/01/02 10:02:32;;;;;;;11.80;1.77;;;9.40;99.90;;;;;;5051256;28;20230;-74
2023/01/02 10:05:20;;;;;;;6.80;1.63;;;9.40;99.90;;;;;;5061638;28;20052;-74
2023/01/02 10:07:52;;;;;;;10.02;1.65;;;9.40;99.90;;;;;;5063421;28;20338;-74
2023/01/02 10:10:33;;;;;;;12.07;1.83;;;9.40;99.90;;;;;;5046331;28;20128;-74
2023/01/02 10:13:22;;;;;;;11.38;1.92;;;9.40;99.90;;;;;;5050941;28;20070;-74
2023/01/02 10:15:50;;;;;;;10.05;2.20;;;9.40;99.90;;;;;;5054456;28;20017;-74
2023/01/02 10:18:27;;;;;;;8.48;1.92;;;9.40;99.90;;;;;;5043355;28;20449;-74
2023/01/02 10:21:02;;;;;;;8.93;1.63;;;9.50;99.90;;;;;;5049703;28;20332;-74
2023/01/02 10:23:35;;;;;;;7.97;1.55;;;9.50;99.90;;;;;;5048848;28;20017;-74
2023/01/02 10:26:13;;;;;;;6.47;1.50;;;9.50;99.90;;;;;;5062873;28;20036;-73
2023/01/02 10:28:56;;;;;;;14.55;1.80;;;9.60;99.90;;;;;;5064295;28;20025;-74
2023/01/02 10:31:35;;;;;;;11.63;1.90;;;9.60;99.90;;;;;;5061963;28;20438;-73
2023/01/02 10:34:02;;;;;;;11.13;1.52;;;9.60;99.90;;;;;;5070099;28;20025;-74
2023/01/02 10:36:32;;;;;;;10.07;1.50;;;9.60;99.90;;;;;;5077323;28;20115;-74
2023/01/02 10:39:23;;;;;;;9.95;1.50;;;9.60;99.90;;;;;;5053895;28;20024;-74
2023/01/02 10:41:51;;;;;;;4.18;1.45;;;9.60;99.90;;;;;;5071085;28;20041;-74
2023/01/02 10:44:26;;;;;;;11.88;1.52;;;9.60;99.90;;;;;;5077236;28;20013;-75
2023/01/02 10:46:53;;;;;;;9.05;1.40;;;9.60;99.90;;;;;;5074183;28;20013;-74
2023/01/02 10:49:20;;;;;;;10.13;1.27;;;9.60;99.90;;;;;;5069362;28;20021;-74
2023/01/02 10:52:01;;;;;;;10.82;1.42;;;9.60;99.90;;;;;;5074621;28;20044;-74
2023/01/02 10:54:27;;;;;;;11.77;1.70;;;9.70;99.90;;;;;;5077685;28;20016;-74
2023/01/02 10:56:53;;;;;;;5.63;1.10;;;9.70;99.90;;;;;;5073221;28;20077;-74
2023/01/02 10:59:27;;;;;;;14.05;1.77;;;9.80;99.90;;;;;;5075853;28;20045;-75
2023/01/02 11:01:56;;;;;;;8.52;1.60;;;9.80;99.90;;;;;;5068458;28;20021;-74
2023/01/02 11:04:29;;;;;;;18.25;1.92;;;9.80;99.90;;;;;;5068688;28;20017;-74
2023/01/02 11:06:56;;;;;;;7.55;1.30;;;9.80;99.90;;;;;;5060683;28;20603;-72
2023/01/02 11:09:26;;;;;;;13.40;1.80;;;9.90;99.90;;;;;;5071482;28;20013;-72
2023/01/02 11:11:54;;;;;;;10.95;1.83;;;9.90;99.90;;;;;;5066139;28;20025;-73
2023/01/02 11:14:22;;;;;;;9.10;1.50;;;9.90;99.90;;;;;;5064642;28;20025;-73
2023/01/02 11:16:49;;;;;;;14.00;1.77;;;9.90;99.90;;;;;;5063089;28;20023;-73
2023/01/02 11:19:21;;;;;;;16.75;1.95;;;9.90;99.90;;;;;;5069370;28;20021;-73
2023/01/02 11:21:48;;;;;;;12.60;1.55;;;9.90;99.90;;;;;;5078365;28;20010;-73
2023/01/02 11:24:24;;;;;;;12.18;1.65;;;10.00;99.90;;;;;;5072930;28;20040;-73
2023/01/02 11:26:50;;;;;;;9.00;1.70;;;10.00;99.90;;;;;;5075216;28;20102;-72
2023/01/02 11:29:27;;;;;;;12.52;1.70;;;10.00;99.90;;;;;;5078177;28;20013;-73
2023/01/02 11:31:57;;;;;;;10.82;2.03;;;10.10;99.90;;;;;;5082044;28;20060;-73
2023/01/02 11:34:35;;;;;;;10.80;1.90;;;10.10;99.90;;;;;;5079390;28;20037;-73
2023/01/02 11:37:16;;;;;;;20.60;2.40;;;10.10;99.90;;;;;;5083021;28;20021;-72
2023/01/02 11:39:55;;;;;;;15.05;2.00;;;10.10;99.90;;;;;;5074329;28;20005;-73
2023/01/02 11:45:17;;;;;;;11.18;1.88;;;10.20;99.90;;;;;;5079807;28;20587;-74
2023/01/02 11:47:47;;;;;;;13.70;2.00;;;10.20;99.90;;;;;;5084705;28;20020;-73
2023/01/02 11:50:24;;;;;;;17.83;2.47;;;10.20;99.90;;;;;;5068998;28;20017;-73
2023/01/02 11:53:08;;;;;;;12.82;1.67;;;10.20;99.90;;;;;;5068457;28;20120;-73
2023/01/02 11:55:41;;;;;;;20.42;2.58;;;10.20;99.90;;;;;;5065005;28;20541;-73
2023/01/02 11:58:21;;;;;;;12.30;2.22;;;10.20;99.90;;;;;;5060329;28;20029;-73
2023/01/02 12:00:51;;;;;;;14.10;2.38;;;10.20;99.90;;;;;;5055447;28;20023;-72
2023/01/02 12:03:26;;;;;;;13.18;2.67;;;10.20;99.90;;;;;;5055802;28;20033;-73
2023/01/02 12:06:18;;;;;;;14.90;2.58;;;10.20;99.90;;;;;;5059191;28;20045;-73
2023/01/02 12:09:12;;;;;;;13.57;2.13;;;10.20;99.90;;;;;;5051532;28;20029;-74
2023/01/02 12:12:01;;;;;;;12.85;2.92;;;10.10;99.90;;;;;;5053929;28;20063;-73
2023/01/02 12:15:00;;;;;;;15.85;3.15;;;10.10;99.90;;;;;;5045985;28;20556;-73
2023/01/02 12:17:44;;;;;;;17.70;3.03;;;10.10;99.90;;;;;;4989638;28;20113;-74
2023/01/02 12:20:46;;;;;;;9.45;2.10;;;10.10;99.90;;;;;;4984127;28;20054;-74
2023/01/02 12:23:30;;;;;;;10.30;2.00;;;10.00;99.90;;;;;;4988319;28;20092;-74
2023/01/02 12:26:05;;;;;;;9.38;1.95;;;9.90;99.90;;;;;;5002210;28;20030;-75
2023/01/02 12:29:08;;;;;;;15.38;1.98;;;9.90;99.90;;;;;;5001854;28;20069;-75
2023/01/02 12:31:38;;;;;;;10.50;1.83;;;9.90;99.90;;;;;;4994938;28;20035;-74
2023/01/02 12:34:50;;;;;;;12.27;2.20;;;9.90;99.90;;;;;;4991580;28;20444;-74
2023/01/02 12:37:46;;;;;;;15.25;2.40;;;9.80;99.90;;;;;;4993401;28;20125;-74
2023/01/02 12:40:27;;;;;;;;;;;9.80;99.90;;;;;;4991724;28;20088;-74
2023/01/02 12:43:24;;;;;;;15.63;3.10;;;9.80;99.90;;;;;;4990735;28;19906;-74
2023/01/02 12:46:20;;;;;;;12.43;3.38;;;9.80;99.90;;;;;;4982335;28;20030;-74
2023/01/02 12:48:57;;;;;;;12.38;3.00;;;9.80;99.90;;;;;;4991833;28;20368;-74
2023/01/02 12:51:50;;;;;;;16.45;4.28;;;9.80;99.90;;;;;;4991842;28;20030;-74
2023/01/02 12:54:34;;;;;;;16.73;4.53;;;9.80;99.90;;;;;;5008096;28;20041;-73
2023/01/02 12:57:15;;;;;;;16.73;3.90;;;9.80;99.90;;;;;;5052015;28;20074;-74
2023/01/02 12:59:49;;;;;;;12.65;3.85;;;9.80;99.90;;;;;;5054993;28;20021;-74
2023/01/02 13:02:44;;;;;;;19.30;4.43;;;9.80;99.90;;;;;;5052055;28;20021;-73
2023/01/02 13:05:15;;;;;;;15.47;3.80;;;9.80;99.90;;;;;;5051931;28;20045;-74
2023/01/02 13:07:49;;;;;;;12.60;3.63;;;9.80;99.90;;;;;;5050433;28;20052;-74